sensor_id;sensor_type;location;lat;lon;timestamp;pressure;altitude;pressure_sealevel;temperature;humidity
33554;BME280;19885;42.208;24.952;2023-11-19T00:00:04;99534.38;;;6.96;83.13
33554;BME280;19885;42.208;24.952;2023-11-19T00:02:31;99530.84;;;6.91;83.00
33554;BME280;19885;42.208;24.952;2023-11-19T00:04:57;99524.81;;;6.90;83.66
33554;BME280;19885;42.208;24.952;2023-11-19T00:07:25;99542.09;;;6.91;82.62
33554;BME280;19885;42.208;24.952;2023-11-19T00:09:51;99533.50;;;6.94;83.48
33554;BME280;19885;42.208;24.952;2023-11-19T00:12:16;99543.81;;;6.91;83.55
33554;BME280;19885;42.208;24.952;2023-11-19T00:14:41;99549.94;;;6.97;82.73
33554;BME280;19885;42.208;24.952;2023-11-19T00:17:06;99550.00;;;7.00;82.54
33554;BME280;19885;42.208;24.952;2023-11-19T00:19:34;99550.97;;;7.07;81.51
33554;BME280;19885;42.208;24.952;2023-11-19T00:21:59;99556.22;;;7.11;81.36
33554;BME280;19885;42.208;24.952;2023-11-19T00:24:27;99560.50;;;7.08;81.98
33554;BME280;19885;42.208;24.952;2023-11-19T00:26:55;99560.50;;;7.09;81.22
33554;BME280;19885;42.208;24.952;2023-11-19T00:29:21;99566.56;;;7.08;81.60
33554;BME280;19885;42.208;24.952;2023-11-19T00:31:49;99554.50;;;7.10;81.55
33554;BME280;19885;42.208;24.952;2023-11-19T00:34:15;99557.91;;;7.09;80.63
33554;BME280;19885;42.208;24.952;2023-11-19T00:36:40;99577.91;;;7.18;79.40
33554;BME280;19885;42.208;24.952;2023-11-19T00:39:05;99565.81;;;7.18;79.78
33554;BME280;19885;42.208;24.952;2023-11-19T00:41:31;99565.78;;;7.15;79.84
33554;BME280;19885;42.208;24.952;2023-11-19T00:43:56;99570.94;;;7.15;80.03
33554;BME280;19885;42.208;24.952;2023-11-19T00:46:21;99575.25;;;7.13;80.41
33554;BME280;19885;42.208;24.952;2023-11-19T00:48:47;99571.75;;;7.11;80.24
33554;BME280;19885;42.208;24.952;2023-11-19T00:51:12;99570.03;;;7.10;80.28
33554;BME280;19885;42.208;24.952;2023-11-19T00:53:38;99569.16;;;7.10;81.17
33554;BME280;19885;42.208;24.952;2023-11-19T00:56:03;99567.31;;;7.04;81.39
33554;BME280;19885;42.208;24.952;2023-11-19T00:58:28;99561.22;;;6.99;82.48
33554;BME280;19885;42.208;24.952;2023-11-19T01:00:54;99559.63;;;7.07;80.64
33554;BME280;19885;42.208;24.952;2023-11-19T01:03:19;99574.31;;;7.08;80.91
33554;BME280;19885;42.208;24.952;2023-11-19T01:05:45;99564.78;;;7.07;80.99
33554;BME280;19885;42.208;24.952;2023-11-19T01:08:12;99566.50;;;7.05;81.46
33554;BME280;19885;42.208;24.952;2023-11-19T01:10:37;99564.72;;;7.01;82.33
33554;BME280;19885;42.208;24.952;2023-11-19T01:13:02;99572.50;;;7.03;82.29
33554;BME280;19885;42.208;24.952;2023-11-19T01:15:30;99571.69;;;7.05;81.90
33554;BME280;19885;42.208;24.952;2023-11-19T01:17:56;99575.06;;;7.01;81.79
33554;BME280;19885;42.208;24.952;2023-11-19T01:20:21;99588.91;;;7.03;82.17
33554;BME280;19885;42.208;24.952;2023-11-19T01:22:46;99582.09;;;7.08;81.76
33554;BME280;19885;42.208;24.952;2023-11-19T01:25:13;99589.00;;;7.09;81.47
33554;BME280;19885;42.208;24.952;2023-11-19T01:27:39;99586.44;;;7.11;81.01
33554;BME280;19885;42.208;24.952;2023-11-19T01:30:04;99580.41;;;7.10;81.13
33554;BME280;19885;42.208;24.952;2023-11-19T01:32:31;99566.50;;;7.07;81.04
33554;BME280;19885;42.208;24.952;2023-11-19T01:34:56;99575.97;;;7.05;81.59
33554;BME280;19885;42.208;24.952;2023-11-19T01:37:21;99572.50;;;7.04;81.97
33554;BME280;19885;42.208;24.952;2023-11-19T01:39:47;99557.78;;;7.00;81.85
33554;BME280;19885;42.208;24.952;2023-11-19T01:42:13;99564.72;;;7.01;82.50
33554;BME280;19885;42.208;24.952;2023-11-19T01:44:38;99568.13;;;7.00;82.98
33554;BME280;19885;42.208;24.952;2023-11-19T01:47:03;99557.84;;;7.03;81.85
33554;BME280;19885;42.208;24.952;2023-11-19T01:49:30;99567.41;;;7.09;81.24
33554;BME280;19885;42.208;24.952;2023-11-19T01:51:55;99558.75;;;7.07;81.97
33554;BME280;19885;42.208;24.952;2023-11-19T01:54:22;99571.66;;;7.04;82.20
33554;BME280;19885;42.208;24.952;2023-11-19T01:56:47;99578.56;;;7.03;82.38
33554;BME280;19885;42.208;24.952;2023-11-19T01:59:13;99579.31;;;6.98;83.00
33554;BME280;19885;42.208;24.952;2023-11-19T02:01:39;99594.09;;;7.03;81.41
33554;BME280;19885;42.208;24.952;2023-11-19T02:04:06;99595.78;;;7.01;82.04
33554;BME280;19885;42.208;24.952;2023-11-19T02:06:32;99585.44;;;7.03;82.08
33554;BME280;19885;42.208;24.952;2023-11-19T02:08:59;99587.97;;;7.00;82.26
33554;BME280;19885;42.208;24.952;2023-11-19T02:11:25;99583.69;;;7.00;81.63
33554;BME280;19885;42.208;24.952;2023-11-19T02:13:54;99588.78;;;6.97;82.28
33554;BME280;19885;42.208;24.952;2023-11-19T02:16:20;99579.22;;;6.92;82.85
33554;BME280;19885;42.208;24.952;2023-11-19T02:18:45;99584.41;;;6.90;82.95
33554;BME280;19885;42.208;24.952;2023-11-19T02:21:10;99567.13;;;6.91;83.22
33554;BME280;19885;42.208;24.952;2023-11-19T02:23:35;99565.41;;;6.91;83.46
33554;BME280;19885;42.208;24.952;2023-11-19T02:26:02;99573.09;;;6.85;84.20
33554;BME280;19885;42.208;24.952;2023-11-19T02:28:28;99573.09;;;6.85;84.15
33554;BME280;19885;42.208;24.952;2023-11-19T02:30:53;99576.47;;;6.81;84.41
33554;BME280;19885;42.208;24.952;2023-11-19T02:33:19;99588.66;;;6.88;83.53
33554;BME280;19885;42.208;24.952;2023-11-19T02:35:44;99594.78;;;6.93;83.11
33554;BME280;19885;42.208;24.952;2023-11-19T02:38:09;99612.16;;;7.00;82.04
33554;BME280;19885;42.208;24.952;2023-11-19T02:40:36;99606.31;;;7.12;80.24
33554;BME280;19885;42.208;24.952;2023-11-19T02:43:01;99596.84;;;7.12;80.66
33554;BME280;19885;42.208;24.952;2023-11-19T02:45:29;99595.13;;;7.14;80.58
33554;BME280;19885;42.208;24.952;2023-11-19T02:47:56;99597.66;;;7.11;80.26
33554;BME280;19885;42.208;24.952;2023-11-19T02:50:21;99591.59;;;7.09;80.30
33554;BME280;19885;42.208;24.952;2023-11-19T02:52:51;99595.00;;;7.05;80.41
33554;BME280;19885;42.208;24.952;2023-11-19T02:55:19;99602.69;;;7.01;80.98
33554;BME280;19885;42.208;24.952;2023-11-19T02:57:45;99611.28;;;6.98;81.82
33554;BME280;19885;42.208;24.952;2023-11-19T03:00:17;99618.16;;;6.96;81.71
33554;BME280;19885;42.208;24.952;2023-11-19T03:02:43;99621.53;;;6.92;82.60
33554;BME280;19885;42.208;24.952;2023-11-19T03:05:14;99638.72;;;6.87;84.02
33554;BME280;19885;42.208;24.952;2023-11-19T03:07:42;99639.47;;;6.82;85.06
33554;BME280;19885;42.208;24.952;2023-11-19T03:10:08;99627.53;;;6.90;85.50
33554;BME280;19885;42.208;24.952;2023-11-19T03:12:37;99630.69;;;6.72;86.33
33554;BME280;19885;42.208;24.952;2023-11-19T03:15:06;99643.72;;;6.77;86.46
33554;BME280;19885;42.208;24.952;2023-11-19T03:17:34;99653.91;;;6.69;86.88
33554;BME280;19885;42.208;24.952;2023-11-19T03:20:00;99652.22;;;6.71;86.87
33554;BME280;19885;42.208;24.952;2023-11-19T03:22:29;99666.94;;;6.72;87.25
33554;BME280;19885;42.208;24.952;2023-11-19T03:24:55;99669.53;;;6.72;86.34
33554;BME280;19885;42.208;24.952;2023-11-19T03:27:20;99672.09;;;6.72;86.11
33554;BME280;19885;42.208;24.952;2023-11-19T03:29:47;99688.53;;;6.74;85.64
33554;BME280;19885;42.208;24.952;2023-11-19T03:32:14;99691.03;;;6.70;85.89
33554;BME280;19885;42.208;24.952;2023-11-19T03:34:40;99686.50;;;6.58;86.34
33554;BME280;19885;42.208;24.952;2023-11-19T03:37:05;99680.25;;;6.47;87.10
33554;BME280;19885;42.208;24.952;2023-11-19T03:39:31;99673.19;;;6.40;86.85
33554;BME280;19885;42.208;24.952;2023-11-19T03:41:56;99672.22;;;6.33;87.82
33554;BME280;19885;42.208;24.952;2023-11-19T03:44:21;99670.53;;;6.35;87.52
33554;BME280;19885;42.208;24.952;2023-11-19T03:46:47;99663.47;;;6.27;87.58
33554;BME280;19885;42.208;24.952;2023-11-19T03:49:12;99671.03;;;6.19;88.35
33554;BME280;19885;42.208;24.952;2023-11-19T03:51:40;99665.06;;;6.22;88.43
33554;BME280;19885;42.208;24.952;2023-11-19T03:54:06;99656.53;;;6.26;88.31
33554;BME280;19885;42.208;24.952;2023-11-19T03:56:31;99662.47;;;6.22;88.06
33554;BME280;19885;42.208;24.952;2023-11-19T03:58:57;99654.75;;;6.25;86.99
33554;BME280;19885;42.208;24.952;2023-11-19T04:01:29;99650.69;;;6.36;85.47
33554;BME280;19885;42.208;24.952;2023-11-19T04:03:54;99670.63;;;6.40;86.09
33554;BME280;19885;42.208;24.952;2023-11-19T04:06:21;99667.94;;;6.35;86.29
33554;BME280;19885;42.208;24.952;2023-11-19T04:08:46;99671.50;;;6.40;85.63
33554;BME280;19885;42.208;24.952;2023-11-19T04:11:14;99676.06;;;6.55;85.06
33554;BME280;19885;42.208;24.952;2023-11-19T04:13:40;99682.88;;;6.50;84.71
33554;BME280;19885;42.208;24.952;2023-11-19T04:16:05;99690.78;;;6.56;85.53
33554;BME280;19885;42.208;24.952;2023-11-19T04:18:31;99682.03;;;6.50;85.42
33554;BME280;19885;42.208;24.952;2023-11-19T04:20:59;99675.19;;;6.53;85.12
33554;BME280;19885;42.208;24.952;2023-11-19T04:23:24;99679.38;;;6.48;84.73
33554;BME280;19885;42.208;24.952;2023-11-19T04:25:50;99672.59;;;6.53;85.07
33554;BME280;19885;42.208;24.952;2023-11-19T04:28:15;99680.44;;;6.58;86.13
33554;BME280;19885;42.208;24.952;2023-11-19T04:30:41;99661.53;;;6.62;85.72
33554;BME280;19885;42.208;24.952;2023-11-19T04:33:06;99660.78;;;6.67;85.25
33554;BME280;19885;42.208;24.952;2023-11-19T04:35:32;99657.94;;;6.54;86.33
33554;BME280;19885;42.208;24.952;2023-11-19T04:37:57;99668.41;;;6.61;85.79
33554;BME280;19885;42.208;24.952;2023-11-19T04:40:22;99666.72;;;6.62;86.16
33554;BME280;19885;42.208;24.952;2023-11-19T04:42:48;99660.47;;;6.52;85.69
33554;BME280;19885;42.208;24.952;2023-11-19T04:45:13;99661.06;;;6.36;86.90
33554;BME280;19885;42.208;24.952;2023-11-19T04:47:39;99672.41;;;6.42;86.56
33554;BME280;19885;42.208;24.952;2023-11-19T04:50:04;99669.53;;;6.30;86.97
33554;BME280;19885;42.208;24.952;2023-11-19T04:52:30;99663.50;;;6.30;86.77
33554;BME280;19885;42.208;24.952;2023-11-19T04:54:55;99671.06;;;6.21;87.32
33554;BME280;19885;42.208;24.952;2023-11-19T04:57:20;99674.50;;;6.20;87.51
33554;BME280;19885;42.208;24.952;2023-11-19T04:59:45;99673.66;;;6.21;87.98
33554;BME280;19885;42.208;24.952;2023-11-19T05:02:11;99664.91;;;6.16;87.44
33554;BME280;19885;42.208;24.952;2023-11-19T05:04:36;99654.56;;;6.16;87.82
33554;BME280;19885;42.208;24.952;2023-11-19T05:07:03;99660.50;;;6.10;87.64
33554;BME280;19885;42.208;24.952;2023-11-19T05:09:28;99652.75;;;6.10;87.52
33554;BME280;19885;42.208;24.952;2023-11-19T05:11:53;99668.28;;;6.12;86.26
33554;BME280;19885;42.208;24.952;2023-11-19T05:14:19;99659.75;;;6.16;86.17
33554;BME280;19885;42.208;24.952;2023-11-19T05:16:45;99663.47;;;6.27;85.32
33554;BME280;19885;42.208;24.952;2023-11-19T05:19:11;99670.34;;;6.28;84.59
33554;BME280;19885;42.208;24.952;2023-11-19T05:21:41;99671.13;;;6.22;85.65
33554;BME280;19885;42.208;24.952;2023-11-19T05:24:09;99658.13;;;6.21;85.54
33554;BME280;19885;42.208;24.952;2023-11-19T05:26:34;99671.84;;;6.17;85.67
33554;BME280;19885;42.208;24.952;2023-11-19T05:29:00;99680.41;;;6.13;86.38
33554;BME280;19885;42.208;24.952;2023-11-19T05:31:25;99692.38;;;6.09;86.22
33554;BME280;19885;42.208;24.952;2023-11-19T05:33:51;99686.22;;;6.04;86.39
33554;BME280;19885;42.208;24.952;2023-11-19T05:36:17;99674.28;;;6.09;86.36
33554;BME280;19885;42.208;24.952;2023-11-19T05:38:42;99691.56;;;6.12;85.97
33554;BME280;19885;42.208;24.952;2023-11-19T05:41:09;99690.66;;;6.10;85.42
33554;BME280;19885;42.208;24.952;2023-11-19T05:43:35;99693.31;;;6.13;85.35
33554;BME280;19885;42.208;24.952;2023-11-19T05:46:00;99702.00;;;6.15;84.58
33554;BME280;19885;42.208;24.952;2023-11-19T05:48:29;99708.84;;;6.13;85.93
33554;BME280;19885;42.208;24.952;2023-11-19T05:50:55;99719.22;;;6.14;85.21
33554;BME280;19885;42.208;24.952;2023-11-19T05:53:21;99718.34;;;6.14;85.43
33554;BME280;19885;42.208;24.952;2023-11-19T05:55:47;99718.34;;;6.14;85.78
33554;BME280;19885;42.208;24.952;2023-11-19T05:58:23;99725.19;;;6.12;85.10
33554;BME280;19885;42.208;24.952;2023-11-19T06:00:49;99728.69;;;6.14;85.60
33554;BME280;19885;42.208;24.952;2023-11-19T06:03:16;99735.63;;;6.15;84.94
33554;BME280;19885;42.208;24.952;2023-11-19T06:05:44;99745.16;;;6.17;85.32
33554;BME280;19885;42.208;24.952;2023-11-19T06:08:09;99738.97;;;6.11;85.86
33554;BME280;19885;42.208;24.952;2023-11-19T06:10:34;99745.06;;;6.13;86.23
33554;BME280;19885;42.208;24.952;2023-11-19T06:13:00;99746.66;;;6.08;85.59
33554;BME280;19885;42.208;24.952;2023-11-19T06:15:29;99758.72;;;6.07;86.24
33554;BME280;19885;42.208;24.952;2023-11-19T06:17:55;99756.09;;;6.06;86.08
33554;BME280;19885;42.208;24.952;2023-11-19T06:20:20;99757.13;;;6.14;87.15
33554;BME280;19885;42.208;24.952;2023-11-19T06:22:46;99763.41;;;6.25;86.10
33554;BME280;19885;42.208;24.952;2023-11-19T06:25:11;99768.78;;;6.34;86.36
33554;BME280;19885;42.208;24.952;2023-11-19T06:27:39;99765.56;;;6.44;85.21
33554;BME280;19885;42.208;24.952;2023-11-19T06:30:05;99770.88;;;6.50;84.00
33554;BME280;19885;42.208;24.952;2023-11-19T06:32:30;99764.25;;;6.63;84.51
33554;BME280;19885;42.208;24.952;2023-11-19T06:34:56;99768.72;;;6.70;84.12
33554;BME280;19885;42.208;24.952;2023-11-19T06:37:21;99750.78;;;6.80;82.78
33554;BME280;19885;42.208;24.952;2023-11-19T06:39:47;99749.28;;;6.91;81.91
33554;BME280;19885;42.208;24.952;2023-11-19T06:42:12;99745.25;;;7.07;80.66
33554;BME280;19885;42.208;24.952;2023-11-19T06:44:37;99745.41;;;7.16;80.53
33554;BME280;19885;42.208;24.952;2023-11-19T06:47:03;99762.81;;;7.22;80.36
33554;BME280;19885;42.208;24.952;2023-11-19T06:49:28;99762.97;;;7.31;80.74
33554;BME280;19885;42.208;24.952;2023-11-19T06:51:54;99780.00;;;7.66;80.16
33554;BME280;19885;42.208;24.952;2023-11-19T06:54:19;99780.91;;;7.68;78.69
33554;BME280;19885;42.208;24.952;2023-11-19T06:56:44;99780.06;;;7.70;79.47
33554;BME280;19885;42.208;24.952;2023-11-19T06:59:10;99804.53;;;7.86;78.04
33554;BME280;19885;42.208;24.952;2023-11-19T07:01:35;99808.06;;;7.88;76.64
33554;BME280;19885;42.208;24.952;2023-11-19T07:04:01;99812.81;;;8.18;76.33
33554;BME280;19885;42.208;24.952;2023-11-19T07:06:33;99816.75;;;7.90;75.30
33554;BME280;19885;42.208;24.952;2023-11-19T07:08:58;99809.13;;;8.02;75.86
33554;BME280;19885;42.208;24.952;2023-11-19T07:11:23;99804.66;;;7.93;75.96
33554;BME280;19885;42.208;24.952;2023-11-19T07:13:49;99807.31;;;7.97;76.41
33554;BME280;19885;42.208;24.952;2023-11-19T07:16:15;99799.25;;;7.80;75.76
33554;BME280;19885;42.208;24.952;2023-11-19T07:18:40;99798.28;;;7.73;76.47
33554;BME280;19885;42.208;24.952;2023-11-19T07:21:07;99804.63;;;7.90;75.76
33554;BME280;19885;42.208;24.952;2023-11-19T07:23:35;99810.22;;;8.16;74.72
33554;BME280;19885;42.208;24.952;2023-11-19T07:26:00;99813.56;;;8.09;73.92
33554;BME280;19885;42.208;24.952;2023-11-19T07:28:26;99821.56;;;8.21;74.60
33554;BME280;19885;42.208;24.952;2023-11-19T07:30:53;99833.66;;;8.21;73.56
33554;BME280;19885;42.208;24.952;2023-11-19T07:33:21;99826.16;;;8.37;72.88
33554;BME280;19885;42.208;24.952;2023-11-19T07:35:46;99833.81;;;8.27;73.29
33554;BME280;19885;42.208;24.952;2023-11-19T07:38:11;99828.13;;;8.53;73.35
33554;BME280;19885;42.208;24.952;2023-11-19T07:40:37;99821.41;;;8.68;72.30
33554;BME280;19885;42.208;24.952;2023-11-19T07:43:02;99841.44;;;8.79;72.08
33554;BME280;19885;42.208;24.952;2023-11-19T07:45:27;99842.19;;;8.68;72.60
33554;BME280;19885;42.208;24.952;2023-11-19T07:47:53;99851.94;;;8.85;72.35
33554;BME280;19885;42.208;24.952;2023-11-19T07:50:19;99853.34;;;8.63;71.70
33554;BME280;19885;42.208;24.952;2023-11-19T07:52:45;99867.47;;;8.81;72.53
33554;BME280;19885;42.208;24.952;2023-11-19T07:55:10;99865.66;;;8.75;71.54
33554;BME280;19885;42.208;24.952;2023-11-19T07:57:36;99863.03;;;8.72;72.19
33554;BME280;19885;42.208;24.952;2023-11-19T08:00:01;99866.47;;;8.73;71.87
33554;BME280;19885;42.208;24.952;2023-11-19T08:02:28;99864.69;;;8.69;71.46
33554;BME280;19885;42.208;24.952;2023-11-19T08:04:53;99863.03;;;8.74;72.12
33554;BME280;19885;42.208;24.952;2023-11-19T08:07:20;99849.09;;;8.69;70.93
33554;BME280;19885;42.208;24.952;2023-11-19T08:09:45;99858.84;;;8.85;71.55
33554;BME280;19885;42.208;24.952;2023-11-19T08:12:12;99856.38;;;8.94;71.23
33554;BME280;19885;42.208;24.952;2023-11-19T08:14:39;99850.13;;;8.80;71.24
33554;BME280;19885;42.208;24.952;2023-11-19T08:17:04;99858.22;;;9.01;70.26
33554;BME280;19885;42.208;24.952;2023-11-19T08:19:30;99854.72;;;9.00;70.80
33554;BME280;19885;42.208;24.952;2023-11-19T08:21:55;99859.16;;;9.09;70.70
33554;BME280;19885;42.208;24.952;2023-11-19T08:24:20;99849.53;;;9.00;69.79
33554;BME280;19885;42.208;24.952;2023-11-19T08:26:46;99856.50;;;9.03;69.54
33554;BME280;19885;42.208;24.952;2023-11-19T08:29:11;99859.97;;;9.03;70.45
33554;BME280;19885;42.208;24.952;2023-11-19T08:31:39;99864.28;;;9.01;70.22
33554;BME280;19885;42.208;24.952;2023-11-19T08:34:05;99854.78;;;9.06;69.04
33554;BME280;19885;42.208;24.952;2023-11-19T08:36:34;99851.19;;;8.94;69.20
33554;BME280;19885;42.208;24.952;2023-11-19T08:39:01;99865.06;;;8.97;69.83
33554;BME280;19885;42.208;24.952;2023-11-19T08:41:28;99856.66;;;9.15;68.98
33554;BME280;19885;42.208;24.952;2023-11-19T08:43:54;99869.66;;;9.18;68.18
33554;BME280;19885;42.208;24.952;2023-11-19T08:46:19;99870.84;;;9.43;69.98
33554;BME280;19885;42.208;24.952;2023-11-19T08:48:45;99859.38;;;9.27;68.44
33554;BME280;19885;42.208;24.952;2023-11-19T08:51:11;99869.19;;;9.49;68.76
33554;BME280;19885;42.208;24.952;2023-11-19T08:53:36;99873.81;;;9.77;69.62
33554;BME280;19885;42.208;24.952;2023-11-19T08:56:01;99883.19;;;9.60;67.66
33554;BME280;19885;42.208;24.952;2023-11-19T08:58:28;99871.75;;;9.46;66.73
33554;BME280;19885;42.208;24.952;2023-11-19T09:00:53;99884.72;;;9.43;68.05
33554;BME280;19885;42.208;24.952;2023-11-19T09:03:18;99879.56;;;9.46;68.47
33554;BME280;19885;42.208;24.952;2023-11-19T09:05:45;99893.66;;;9.66;67.97
33554;BME280;19885;42.208;24.952;2023-11-19T09:08:10;99897.22;;;9.77;66.77
33554;BME280;19885;42.208;24.952;2023-11-19T09:10:37;99891.03;;;9.68;67.13
33554;BME280;19885;42.208;24.952;2023-11-19T09:13:02;99873.91;;;9.86;67.52
33554;BME280;19885;42.208;24.952;2023-11-19T09:15:27;99872.34;;;10.06;65.34
33554;BME280;19885;42.208;24.952;2023-11-19T09:17:52;99874.78;;;9.85;65.28
33554;BME280;19885;42.208;24.952;2023-11-19T09:20:18;99880.88;;;9.90;66.12
33554;BME280;19885;42.208;24.952;2023-11-19T09:22:43;99874.69;;;9.79;65.58
33554;BME280;19885;42.208;24.952;2023-11-19T09:25:09;99878.22;;;9.84;65.24
33554;BME280;19885;42.208;24.952;2023-11-19T09:27:34;99875.84;;;10.10;66.76
33554;BME280;19885;42.208;24.952;2023-11-19T09:30:00;99880.91;;;9.92;66.51
33554;BME280;19885;42.208;24.952;2023-11-19T09:32:25;99876.59;;;9.95;67.63
33554;BME280;19885;42.208;24.952;2023-11-19T09:34:51;99869.84;;;10.16;66.02
33554;BME280;19885;42.208;24.952;2023-11-19T09:37:16;99867.84;;;9.90;65.66
33554;BME280;19885;42.208;24.952;2023-11-19T09:39:41;99862.81;;;10.08;65.53
33554;BME280;19885;42.208;24.952;2023-11-19T09:42:11;99870.63;;;10.05;64.86
33554;BME280;19885;42.208;24.952;2023-11-19T09:44:40;99863.53;;;9.91;65.11
33554;BME280;19885;42.208;24.952;2023-11-19T09:47:11;99849.75;;;10.02;65.08
33554;BME280;19885;42.208;24.952;2023-11-19T09:49:40;99862.16;;;10.26;65.51
33554;BME280;19885;42.208;24.952;2023-11-19T09:52:05;99852.47;;;10.12;64.51
33554;BME280;19885;42.208;24.952;2023-11-19T09:54:30;99869.13;;;10.30;64.17
33554;BME280;19885;42.208;24.952;2023-11-19T09:56:59;99877.88;;;10.43;63.76
33554;BME280;19885;42.208;24.952;2023-11-19T09:59:31;99886.19;;;10.01;64.70
33554;BME280;19885;42.208;24.952;2023-11-19T10:01:58;99867.25;;;10.13;63.67
33554;BME280;19885;42.208;24.952;2023-11-19T10:04:24;99859.66;;;10.40;64.35
33554;BME280;19885;42.208;24.952;2023-11-19T10:06:50;99857.75;;;10.22;63.46
33554;BME280;19885;42.208;24.952;2023-11-19T10:09:16;99851.69;;;10.22;64.04
33554;BME280;19885;42.208;24.952;2023-11-19T10:11:41;99847.28;;;10.18;64.04
33554;BME280;19885;42.208;24.952;2023-11-19T10:14:07;99855.94;;;10.14;63.55
33554;BME280;19885;42.208;24.952;2023-11-19T10:16:34;99845.50;;;10.11;64.43
33554;BME280;19885;42.208;24.952;2023-11-19T10:18:59;99848.28;;;10.32;62.43
33554;BME280;19885;42.208;24.952;2023-11-19T10:21:24;99835.25;;;10.29;63.05
33554;BME280;19885;42.208;24.952;2023-11-19T10:23:54;99828.25;;;10.25;62.90
33554;BME280;19885;42.208;24.952;2023-11-19T10:26:21;99826.41;;;10.10;62.70
33554;BME280;19885;42.208;24.952;2023-11-19T10:28:50;99815.19;;;10.20;63.08
33554;BME280;19885;42.208;24.952;2023-11-19T10:31:16;99821.38;;;10.33;63.93
33554;BME280;19885;42.208;24.952;2023-11-19T10:33:42;99827.53;;;10.42;61.91
33554;BME280;19885;42.208;24.952;2023-11-19T10:36:10;99829.44;;;10.67;63.08
33554;BME280;19885;42.208;24.952;2023-11-19T10:38:37;99824.31;;;10.86;60.11
33554;BME280;19885;42.208;24.952;2023-11-19T10:41:03;99819.88;;;10.71;60.14
33554;BME280;19885;42.208;24.952;2023-11-19T10:43:29;99820.72;;;10.67;61.85
33554;BME280;19885;42.208;24.952;2023-11-19T10:45:54;99809.47;;;10.74;60.78
33554;BME280;19885;42.208;24.952;2023-11-19T10:48:33;99812.88;;;10.61;60.98
33554;BME280;19885;42.208;24.952;2023-11-19T10:51:00;99808.59;;;10.72;61.03
33554;BME280;19885;42.208;24.952;2023-11-19T10:53:27;99832.13;;;10.87;61.37
33554;BME280;19885;42.208;24.952;2023-11-19T10:55:52;99822.59;;;10.95;61.37
33554;BME280;19885;42.208;24.952;2023-11-19T10:58:19;99819.91;;;10.77;61.48
33554;BME280;19885;42.208;24.952;2023-11-19T11:00:45;99826.78;;;10.66;61.16
33554;BME280;19885;42.208;24.952;2023-11-19T11:03:17;99824.28;;;10.81;63.13
33554;BME280;19885;42.208;24.952;2023-11-19T11:05:42;99823.56;;;11.18;61.50
33554;BME280;19885;42.208;24.952;2023-11-19T11:08:10;99829.66;;;11.17;60.85
33554;BME280;19885;42.208;24.952;2023-11-19T11:10:39;99825.31;;;11.25;60.78
33554;BME280;19885;42.208;24.952;2023-11-19T11:13:04;99839.13;;;11.00;61.14
33554;BME280;19885;42.208;24.952;2023-11-19T11:15:30;99851.25;;;10.89;61.70
33554;BME280;19885;42.208;24.952;2023-11-19T11:17:59;99853.03;;;10.96;60.53
33554;BME280;19885;42.208;24.952;2023-11-19T11:20:29;99853.06;;;11.04;60.38
33554;BME280;19885;42.208;24.952;2023-11-19T11:22:59;99853.13;;;11.14;60.77
33554;BME280;19885;42.208;24.952;2023-11-19T11:30:53;99843.34;;;10.72;61.86
33554;BME280;19885;42.208;24.952;2023-11-19T11:36:07;99825.09;;;10.71;61.81
33554;BME280;19885;42.208;24.952;2023-11-19T11:38:37;99814.81;;;11.07;61.74
33554;BME280;19885;42.208;24.952;2023-11-19T11:43:58;99805.28;;;11.15;61.38
33554;BME280;19885;42.208;24.952;2023-11-19T11:49:01;99801.59;;;10.60;60.07
33554;BME280;19885;42.208;24.952;2023-11-19T11:54:08;99799.78;;;10.49;60.28
33554;BME280;19885;42.208;24.952;2023-11-19T11:56:33;99802.31;;;10.37;60.56
33554;BME280;19885;42.208;24.952;2023-11-19T11:59:01;99785.06;;;10.54;60.93
33554;BME280;19885;42.208;24.952;2023-11-19T12:01:27;99779.84;;;10.57;60.90
33554;BME280;19885;42.208;24.952;2023-11-19T12:03:57;99772.91;;;10.59;61.90
33554;BME280;19885;42.208;24.952;2023-11-19T12:06:23;99776.28;;;10.40;61.84
33554;BME280;19885;42.208;24.952;2023-11-19T12:08:49;99770.06;;;10.18;62.64
33554;BME280;19885;42.208;24.952;2023-11-19T12:11:14;99752.72;;;10.19;61.98
33554;BME280;19885;42.208;24.952;2023-11-19T12:13:54;99764.03;;;10.24;61.42
33554;BME280;19885;42.208;24.952;2023-11-19T12:16:24;99775.34;;;10.30;61.95
33554;BME280;19885;42.208;24.952;2023-11-19T12:18:50;99772.78;;;10.33;61.05
33554;BME280;19885;42.208;24.952;2023-11-19T12:21:28;99772.72;;;10.26;61.37
33554;BME280;19885;42.208;24.952;2023-11-19T12:23:54;99777.09;;;10.28;61.08
33554;BME280;19885;42.208;24.952;2023-11-19T12:26:22;99775.28;;;10.17;61.11
33554;BME280;19885;42.208;24.952;2023-11-19T12:29:00;99764.78;;;10.11;60.99
33554;BME280;19885;42.208;24.952;2023-11-19T12:31:26;99758.72;;;10.12;62.39
33554;BME280;19885;42.208;24.952;2023-11-19T12:33:51;99762.28;;;10.23;61.33
33554;BME280;19885;42.208;24.952;2023-11-19T12:36:18;99756.16;;;10.16;60.78
33554;BME280;19885;42.208;24.952;2023-11-19T12:38:47;99756.03;;;10.01;60.82
33554;BME280;19885;42.208;24.952;2023-11-19T12:41:12;99750.88;;;10.05;61.06
33554;BME280;19885;42.208;24.952;2023-11-19T12:43:43;99740.41;;;10.02;62.63
33554;BME280;19885;42.208;24.952;2023-11-19T12:48:43;99739.69;;;10.19;62.79
33554;BME280;19885;42.208;24.952;2023-11-19T12:51:08;99750.84;;;10.08;60.83
33554;BME280;19885;42.208;24.952;2023-11-19T12:53:46;99749.97;;;10.03;61.17
33554;BME280;19885;42.208;24.952;2023-11-19T12:56:12;99745.66;;;10.08;61.28
33554;BME280;19885;42.208;24.952;2023-11-19T12:58:38;99746.50;;;10.04;61.05
33554;BME280;19885;42.208;24.952;2023-11-19T13:01:07;99737.78;;;9.99;62.40
33554;BME280;19885;42.208;24.952;2023-11-19T13:03:35;99731.72;;;9.99;61.97
33554;BME280;19885;42.208;24.952;2023-11-19T13:06:11;99734.31;;;9.97;60.73
33554;BME280;19885;42.208;24.952;2023-11-19T13:08:37;99733.38;;;9.91;60.96
33554;BME280;19885;42.208;24.952;2023-11-19T13:11:03;99720.34;;;9.86;61.41